Time;durP1;ratioP1;P1;durP2;ratioP2;P2;SDS_P1;SDS_P2;PMS_P1;PMS_P2;Temp;Humidity;BMP_temperature;BMP_pressure;BME280_temperature;BME280_humidity;BME280_pressure;Samples;Min_cycle;Max_cycle;Signal;HPM_P1;HPM_P2
2021/04/28 00:02:09;;;;;;;8.75;4.75;;;;;;;11.35;32.06;100625.16;4896812;28;123922;-72
2021/04/28 00:04:36;;;;;;;6.80;4.90;;;;;;;11.34;31.92;100623.47;4908886;28;123478;-72
2021/04/28 00:07:03;;;;;;;10.70;5.72;;;;;;;11.33;32.06;100621.72;4888931;28;113307;-72
2021/04/28 00:09:31;;;;;;;11.18;5.60;;;;;;;11.31;31.82;100615.66;4897679;28;114076;-72
2021/04/28 00:11:59;;;;;;;9.10;5.18;;;;;;;11.30;32.13;100613.91;4883847;28;123303;-72
2021/04/28 00:14:26;;;;;;;11.77;5.32;;;;;;;11.27;32.06;100616.75;4889316;28;123447;-72
2021/04/28 00:16:52;;;;;;;10.02;5.50;;;;;;;11.27;32.19;100619.41;4891872;28;113694;-72
2021/04/28 00:19:20;;;;;;;12.15;5.22;;;;;;;11.25;32.05;100606.22;4912599;28;113191;-72
2021/04/28 00:21:46;;;;;;;9.52;5.22;;;;;;;11.23;32.17;100615.19;4896302;28;123956;-73
2021/04/28 00:24:13;;;;;;;10.60;5.55;;;;;;;11.22;32.44;100608.16;4894541;28;123026;-72
2021/04/28 00:26:39;;;;;;;7.80;5.43;;;;;;;11.19;32.44;100603.00;4895168;28;114266;-72
2021/04/28 00:29:06;;;;;;;7.28;4.90;;;;;;;11.14;32.36;100605.06;4887150;28;112789;-73
2021/04/28 00:31:33;;;;;;;9.10;5.75;;;;;;;11.08;32.62;100601.78;4897905;28;124039;-73
2021/04/28 00:34:00;;;;;;;9.60;5.25;;;;;;;11.05;32.79;100601.94;4874480;28;122297;-72
2021/04/28 00:36:27;;;;;;;9.13;5.65;;;;;;;10.99;32.56;100596.94;4914215;28;115365;-72
2021/04/28 00:38:54;;;;;;;10.48;5.47;;;;;;;10.95;32.87;100594.56;4907281;28;114454;-72
2021/04/28 00:41:20;;;;;;;7.13;5.38;;;;;;;10.91;32.91;100593.84;4893947;28;124425;-72
2021/04/28 00:43:48;;;;;;;8.65;5.47;;;;;;;10.88;32.84;100588.69;4890335;28;124649;-72
2021/04/28 00:46:16;;;;;;;8.70;5.13;;;;;;;10.85;32.91;100578.22;4858939;28;114543;-72
2021/04/28 00:48:42;;;;;;;8.27;5.35;;;;;;;10.82;32.77;100589.00;4886670;28;112959;-72
2021/04/28 00:51:09;;;;;;;7.95;5.70;;;;;;;10.79;32.87;100584.69;4875817;28;124817;-72
2021/04/28 00:53:36;;;;;;;9.70;5.18;;;;;;;10.76;33.23;100589.31;4899328;28;124191;-72
2021/04/28 00:56:03;;;;;;;6.70;5.15;;;;;;;10.71;33.08;100582.44;4903883;28;114594;-73
2021/04/28 00:58:30;;;;;;;9.10;5.60;;;;;;;10.68;33.52;100577.31;4893645;28;113302;-72
2021/04/28 01:00:57;;;;;;;9.75;6.05;;;;;;;10.65;33.35;100572.16;4889783;28;123307;-72
2021/04/28 01:03:27;;;;;;;9.07;5.32;;;;;;;10.63;33.38;100581.97;4892082;28;124631;-73
2021/04/28 01:06:00;;;;;;;9.48;5.20;;;;;;;10.61;33.41;100575.91;4875948;28;113486;-72
2021/04/28 01:08:29;;;;;;;10.85;6.03;;;;;;;10.61;33.48;100570.59;4892460;28;113238;-72
2021/04/28 01:10:57;;;;;;;8.93;5.40;;;;;;;10.60;33.68;100568.88;4892275;28;124611;-72
2021/04/28 01:13:24;;;;;;;6.70;5.38;;;;;;;10.59;33.66;100567.16;4893181;28;123204;-72
2021/04/28 01:15:53;;;;;;;10.90;5.07;;;;;;;10.56;33.81;100564.66;4890749;28;114199;-72
2021/04/28 01:18:21;;;;;;;9.05;5.63;;;;;;;10.54;33.80;100569.19;4889394;28;112348;-72
2021/04/28 01:20:49;;;;;;;9.60;5.72;;;;;;;10.53;33.71;100564.84;4903787;28;123956;-72
2021/04/28 01:23:16;;;;;;;8.57;5.65;;;;;;;10.51;33.80;100564.06;4889902;28;123185;-72
2021/04/28 01:25:45;;;;;;;13.55;6.28;;;;;;;10.49;33.77;100560.59;4890206;28;114608;-72
2021/04/28 01:28:17;;;;;;;8.90;5.80;;;;;;;10.45;33.80;100564.34;4894330;28;115086;-72
2021/04/28 01:30:51;;;;;;;9.68;5.70;;;;;;;10.42;34.14;100559.22;4911804;28;123860;-72
2021/04/28 01:33:43;;;;;;;7.25;5.65;;;;;;;10.38;33.77;100560.25;4880210;28;122852;-72
2021/04/28 01:36:19;;;;;;;8.75;5.90;;;;;;;10.34;34.12;100556.94;4908732;28;113820;-72
2021/04/28 01:38:51;;;;;;;10.63;5.87;;;;;;;10.29;34.00;100553.63;4868106;28;113729;-72
2021/04/28 01:41:21;;;;;;;;;;;;;;;10.24;33.53;100551.19;4897801;28;122365;-73
2021/04/28 01:43:50;;;;;;;9.23;5.70;;;;;;;10.20;33.92;100560.19;4883049;28;124373;-72
2021/04/28 01:46:17;;;;;;;10.25;6.00;;;;;;;10.14;33.99;100549.91;4897102;28;114485;-72
2021/04/28 01:48:46;;;;;;;8.55;6.03;;;;;;;10.09;34.34;100558.06;4889326;28;113461;-73
2021/04/28 01:51:14;;;;;;;11.63;5.53;;;;;;;10.03;34.32;100562.81;4874915;28;124860;-72
2021/04/28 01:53:43;;;;;;;8.68;5.63;;;;;;;10.00;34.75;100555.00;4891488;28;123709;-72
2021/04/28 01:56:12;;;;;;;12.52;5.82;;;;;;;9.96;34.54;100561.38;4894720;28;113551;-72
2021/04/28 01:58:56;;;;;;;8.93;6.25;;;;;;;9.90;34.88;100552.78;4895070;28;114838;-72
2021/04/28 02:01:36;;;;;;;8.35;5.68;;;;;;;9.88;34.81;100544.06;4894975;28;123409;-72
2021/04/28 02:04:04;;;;;;;7.75;5.70;;;;;;;9.87;34.67;100546.78;4891415;28;123983;-72
2021/04/28 02:06:32;;;;;;;8.85;6.00;;;;;;;9.83;34.86;100551.38;4903394;28;113740;-72
2021/04/28 02:08:59;;;;;;;7.25;5.28;;;;;;;9.83;34.61;100546.09;4894927;28;113343;-72
2021/04/28 02:11:26;;;;;;;10.00;5.60;;;;;;;9.80;34.70;100540.94;4897810;28;124221;-72
2021/04/28 02:13:53;;;;;;;11.00;6.00;;;;;;;9.80;34.88;100546.22;4914738;28;124281;-72
2021/04/28 02:16:38;;;;;;;8.90;5.90;;;;;;;9.80;35.38;100540.94;4903379;28;114706;-72
2021/04/28 02:19:09;;;;;;;8.52;6.13;;;;;;;9.81;35.36;100537.34;4907074;28;114101;-72
2021/04/28 02:21:41;;;;;;;8.43;5.53;;;;;;;9.80;35.33;100535.63;4895004;28;123020;-72
2021/04/28 02:24:24;;;;;;;7.40;5.67;;;;;;;9.81;35.11;100536.50;4891985;28;124148;-72
2021/04/28 02:26:57;;;;;;;9.05;5.72;;;;;;;9.79;35.30;100533.91;4877614;28;114805;-72
2021/04/28 02:29:25;;;;;;;10.03;6.17;;;;;;;9.79;35.03;100531.28;4919460;28;112924;-72
2021/04/28 02:31:52;;;;;;;8.93;5.85;;;;;;;9.78;35.15;100526.94;4909160;28;124782;-72
2021/04/28 02:34:28;;;;;;;10.32;6.25;;;;;;;9.78;35.23;100526.94;4892692;28;123954;-73
2021/04/28 02:37:07;;;;;;;11.20;6.10;;;;;;;9.78;34.99;100531.38;4904104;28;113505;-72
2021/04/28 02:39:57;;;;;;;9.02;6.20;;;;;;;9.76;35.34;100523.50;4926555;28;114046;-72
2021/04/28 02:42:24;;;;;;;11.30;6.30;;;;;;;9.73;35.44;100523.63;4900491;28;122616;-73
2021/04/28 02:44:52;;;;;;;13.20;6.15;;;;;;;9.70;35.41;100523.75;4901962;28;122999;-72
2021/04/28 02:47:22;;;;;;;11.88;6.10;;;;;;;9.68;35.68;100520.34;4911447;28;114614;-72
2021/04/28 02:49:51;;;;;;;11.10;6.45;;;;;;;9.66;35.56;100522.19;4908611;28;114198;-72
2021/04/28 02:52:49;;;;;;;17.17;6.32;;;;;;;9.64;35.47;100521.41;4887641;28;124219;-72
2021/04/28 02:55:16;;;;;;;10.98;5.97;;;;;;;9.62;35.98;100526.75;4911391;28;123068;-72
2021/04/28 02:57:48;;;;;;;12.60;6.68;;;;;;;9.58;35.83;100519.91;4905594;28;113620;-72
2021/04/28 03:00:21;;;;;;;13.77;6.30;;;;;;;9.57;35.99;100517.31;4920635;28;113729;-72
2021/04/28 03:02:50;;;;;;;13.10;6.57;;;;;;;9.57;36.00;100517.31;4894274;28;124202;-72
2021/04/28 03:05:19;;;;;;;8.38;6.60;;;;;;;9.54;36.02;100519.19;4878979;28;124347;-72
2021/04/28 03:08:09;;;;;;;12.80;6.60;;;;;;;9.51;35.67;100514.06;4910248;28;114405;-72
2021/04/28 03:10:38;;;;;;;11.50;6.43;;;;;;;9.46;36.00;100510.75;4891627;28;113667;-72
2021/04/28 03:13:05;;;;;;;11.27;6.72;;;;;;;9.41;36.04;100515.38;4869189;28;125131;-73
2021/04/28 03:15:33;;;;;;;14.18;6.85;;;;;;;9.37;36.02;100516.47;4892852;28;123777;-72
2021/04/28 03:18:03;;;;;;;12.63;6.47;;;;;;;9.34;36.16;100513.94;4891333;28;113667;-72
2021/04/28 03:20:35;;;;;;;11.55;6.22;;;;;;;9.30;36.53;100510.59;4888050;28;114234;-72
2021/04/28 03:23:03;;;;;;;12.10;6.82;;;;;;;9.29;36.21;100508.03;4897189;28;122393;-72
2021/04/28 03:25:31;;;;;;;13.18;6.72;;;;;;;9.27;36.54;100508.09;4910609;28;124399;-72
2021/04/28 03:27:58;;;;;;;12.18;6.80;;;;;;;9.26;36.74;100513.44;4892041;28;113409;-72
2021/04/28 03:30:25;;;;;;;13.85;6.47;;;;;;;9.25;36.72;100511.72;4902877;28;113879;-72
2021/04/28 03:32:51;;;;;;;11.85;6.78;;;;;;;9.21;36.88;100512.78;4896770;28;124338;-72
2021/04/28 03:35:38;;;;;;;14.18;7.05;;;;;;;9.15;37.00;100511.28;4911683;28;124662;-73
2021/04/28 03:38:23;;;;;;;9.05;6.47;;;;;;;9.06;36.88;100496.72;4895317;28;114669;-72
2021/04/28 03:40:51;;;;;;;15.10;6.55;;;;;;;9.01;36.87;100506.63;4888869;28;113921;-72
2021/04/28 03:43:18;;;;;;;10.52;6.65;;;;;;;8.97;37.20;100497.13;4892570;28;123883;-72
2021/04/28 03:45:44;;;;;;;11.38;6.50;;;;;;;8.91;36.87;100503.53;4888496;28;123554;-72
2021/04/28 03:48:20;;;;;;;10.00;6.70;;;;;;;8.90;37.53;100506.22;4904910;23;113818;-68
2021/04/28 03:50:47;;;;;;;12.95;7.10;;;;;;;8.88;37.22;100503.66;4928270;28;114362;-66
2021/04/28 03:53:14;;;;;;;11.43;7.15;;;;;;;8.85;37.39;100501.13;4915841;28;122006;-68
2021/04/28 03:55:43;;;;;;;16.25;7.53;;;;;;;8.84;37.53;100501.22;4903329;28;124319;-68
2021/04/28 03:58:10;;;;;;;18.70;6.82;;;;;;;8.80;37.27;100504.88;4927205;28;115605;-68
2021/04/28 04:00:37;;;;;;;11.93;6.80;;;;;;;8.74;37.51;100506.91;4914336;28;114139;-66
2021/04/28 04:03:26;;;;;;;11.55;7.65;;;;;;;8.68;37.72;100507.16;4913847;28;123225;-66
2021/04/28 04:06:12;;;;;;;13.23;7.35;;;;;;;8.63;37.85;100503.84;4906345;28;124717;-66
2021/04/28 04:09:01;;;;;;;11.68;6.82;;;;;;;8.59;37.68;100502.28;4905828;28;115027;-67
2021/04/28 04:11:29;;;;;;;15.32;7.43;;;;;;;8.56;37.84;100497.09;4894718;28;113828;-67
2021/04/28 04:13:56;;;;;;;14.73;7.30;;;;;;;8.54;37.71;100498.97;4913141;28;123829;-67
2021/04/28 04:16:23;;;;;;;13.40;6.68;;;;;;;8.53;37.82;100503.38;4901548;28;124436;-66
2021/04/28 04:18:51;;;;;;;11.85;6.47;;;;;;;8.51;37.92;100499.06;4905933;28;113745;-67
2021/04/28 04:21:19;;;;;;;10.20;6.70;;;;;;;8.51;38.00;100499.06;4927233;28;113118;-66
2021/04/28 04:23:56;;;;;;;9.32;7.22;;;;;;;8.50;38.01;100497.38;4906316;28;123424;-67
2021/04/28 04:26:40;;;;;;;12.05;6.90;;;;;;;8.48;37.89;100496.59;4905338;28;122906;-67
2021/04/28 04:29:23;;;;;;;15.48;7.38;;;;;;;8.46;38.10;100490.53;4911669;28;113914;-67
2021/04/28 04:31:58;;;;;;;14.23;6.80;;;;;;;8.45;38.25;100499.34;4905807;28;114208;-67
2021/04/28 04:34:45;;;;;;;19.70;7.30;;;;;;;8.44;38.04;100500.25;4915090;28;124781;-66
2021/04/28 04:37:30;;;;;;;11.80;7.28;;;;;;;8.44;38.14;100502.88;4915690;28;125259;-67
2021/04/28 04:39:56;;;;;;;13.38;7.30;;;;;;;8.43;38.27;100496.75;4913394;28;114966;-66
2021/04/28 04:42:42;;;;;;;9.87;7.30;;;;;;;8.40;38.47;100502.16;4917373;28;115085;-66
2021/04/28 04:45:26;;;;;;;10.98;7.13;;;;;;;8.36;38.56;100493.50;4915459;28;123099;-66
2021/04/28 04:47:53;;;;;;;11.60;7.57;;;;;;;8.34;39.07;100503.25;4911209;28;123537;-66
2021/04/28 04:50:19;;;;;;;24.38;7.75;;;;;;;8.30;38.93;100496.38;4926254;28;115554;-66
2021/04/28 04:52:46;;;;;;;13.52;7.65;;;;;;;8.28;38.92;100487.66;4908897;28;114061;-66
2021/04/28 04:55:13;;;;;;;13.60;7.63;;;;;;;8.28;39.21;100498.22;4897196;28;124000;-66
2021/04/28 04:57:40;;;;;;;9.90;7.30;;;;;;;8.29;39.02;100489.41;4926072;28;123968;-68
2021/04/28 05:00:07;;;;;;;12.82;7.80;;;;;;;8.31;39.08;100492.81;4911239;28;113097;-66
2021/04/28 05:02:33;;;;;;;10.93;7.43;;;;;;;8.33;39.05;100496.25;4913821;28;113135;-66
2021/04/28 05:05:01;;;;;;;13.05;7.43;;;;;;;8.34;39.14;100498.00;4930849;28;124254;-66
2021/04/28 05:07:28;;;;;;;16.23;8.15;;;;;;;8.37;39.41;100497.00;4900243;28;123817;-66
2021/04/28 05:09:54;;;;;;;14.85;7.25;;;;;;;8.41;39.46;100497.72;4901199;28;113998;-66
2021/04/28 05:12:21;;;;;;;18.55;8.07;;;;;;;8.47;39.52;100502.78;4916942;28;112544;-66
2021/04/28 05:14:47;;;;;;;17.90;7.70;;;;;;;8.52;39.75;100501.66;4934330;28;124206;-67
2021/04/28 05:17:14;;;;;;;18.13;7.65;;;;;;;8.57;39.63;100499.69;4932903;28;123877;-67
2021/04/28 05:19:41;;;;;;;9.82;6.80;;;;;;;8.65;39.74;100502.00;4922496;28;114177;-66
2021/04/28 05:22:07;;;;;;;14.93;7.22;;;;;;;8.71;39.74;100496.44;4933206;28;114534;-67
2021/04/28 05:24:49;;;;;;;14.38;7.55;;;;;;;8.79;39.61;100503.19;4913798;28;123498;-66
2021/04/28 05:27:28;;;;;;;13.40;7.28;;;;;;;8.85;39.55;100508.19;4914352;28;123987;-66
2021/04/28 05:29:55;;;;;;;12.90;7.43;;;;;;;8.94;39.70;100513.09;4916538;28;113489;-66
2021/04/28 05:32:22;;;;;;;11.55;7.10;;;;;;;9.01;39.92;100506.63;4928107;28;114146;-67
2021/04/28 05:34:50;;;;;;;11.48;7.20;;;;;;;9.06;39.96;100502.00;4907352;28;122875;-67
2021/04/28 05:37:19;;;;;;;17.10;7.85;;;;;;;9.12;40.35;100496.44;4904253;28;123447;-66
2021/04/28 05:39:49;;;;;;;15.85;7.68;;;;;;;9.18;40.50;100494.44;4925279;28;114377;-66
2021/04/28 05:42:17;;;;;;;14.00;7.47;;;;;;;9.22;40.48;100491.59;4916545;28;114893;-67
2021/04/28 05:44:44;;;;;;;23.23;9.02;;;;;;;9.27;40.94;100488.75;4933645;28;123800;-67
2021/04/28 05:47:11;;;;;;;16.17;8.10;;;;;;;9.31;40.84;100485.88;4923551;28;124399;-66
2021/04/28 05:49:38;;;;;;;14.32;7.32;;;;;;;9.37;41.05;100484.75;4919106;28;114613;-66
2021/04/28 05:52:05;;;;;;;14.52;7.57;;;;;;;9.45;40.84;100492.31;4906687;28;113449;-66
2021/04/28 05:54:32;;;;;;;13.70;7.63;;;;;;;9.53;40.71;100491.06;4915761;28;123635;-67
2021/04/28 05:56:59;;;;;;;11.93;7.00;;;;;;;9.63;41.00;100501.19;4900307;28;122593;-67
2021/04/28 05:59:26;;;;;;;13.90;7.50;;;;;;;9.72;40.66;100495.50;4931326;28;114735;-67
2021/04/28 06:01:52;;;;;;;16.35;7.55;;;;;;;9.82;40.77;100496.75;4929495;28;113970;-68
2021/04/28 06:04:19;;;;;;;11.70;6.95;;;;;;;9.90;40.71;100494.59;4913100;28;122956;-67
2021/04/28 06:06:46;;;;;;;19.95;7.60;;;;;;;9.99;40.62;100492.44;4912297;28;124502;-67
2021/04/28 06:09:14;;;;;;;13.05;7.53;;;;;;;10.10;40.60;100495.44;4897649;28;113477;-67
2021/04/28 06:11:41;;;;;;;13.55;7.30;;;;;;;10.20;40.33;100499.34;4931263;28;113812;-67
2021/04/28 06:14:07;;;;;;;10.52;6.80;;;;;;;10.29;40.18;100496.22;4913215;28;123057;-67
2021/04/28 06:16:34;;;;;;;14.88;7.82;;;;;;;10.38;39.98;100499.38;4915482;28;123926;-67
2021/04/28 06:19:01;;;;;;;10.23;6.78;;;;;;;10.48;39.75;100503.28;4909143;28;113892;-68
2021/04/28 06:21:27;;;;;;;10.63;6.72;;;;;;;10.57;39.89;100499.31;4929405;28;114030;-67
2021/04/28 06:23:54;;;;;;;11.57;6.75;;;;;;;10.64;39.27;100491.00;4909303;28;123972;-67
2021/04/28 06:26:21;;;;;;;10.60;6.50;;;;;;;10.71;39.42;100492.38;4916272;28;123267;-67
2021/04/28 06:28:47;;;;;;;15.98;7.50;;;;;;;10.77;39.26;100491.22;4930039;28;115773;-67
2021/04/28 06:31:14;;;;;;;12.27;6.97;;;;;;;10.82;39.55;100493.63;4933725;28;114939;-67
2021/04/28 06:33:42;;;;;;;13.63;7.13;;;;;;;10.88;39.38;100488.00;4933391;28;123839;-67
2021/04/28 06:36:10;;;;;;;9.85;6.72;;;;;;;10.96;39.06;100491.09;4933281;28;123907;-67
2021/04/28 06:38:37;;;;;;;10.63;7.13;;;;;;;11.02;39.04;100488.16;4915392;28;113122;-68
2021/04/28 06:41:04;;;;;;;10.20;7.03;;;;;;;11.12;39.00;100479.72;4916170;28;113865;-67
2021/04/28 06:43:31;;;;;;;11.50;7.30;;;;;;;11.20;39.20;100477.50;4925906;28;124334;-67
2021/04/28 06:46:06;;;;;;;11.77;7.28;;;;;;;11.26;38.96;100467.44;4924159;28;123936;-68
2021/04/28 06:48:33;;;;;;;17.25;7.57;;;;;;;11.34;39.19;100469.69;4892783;28;113264;-67
2021/04/28 06:50:59;;;;;;;11.35;7.00;;;;;;;11.43;39.10;100473.59;4902888;28;112829;-68
2021/04/28 06:53:26;;;;;;;20.70;7.63;;;;;;;11.53;39.02;100468.66;4910053;28;124149;-68
2021/04/28 06:55:53;;;;;;;13.20;7.63;;;;;;;11.63;38.78;100476.03;4911117;28;124299;-68
2021/04/28 06:58:20;;;;;;;10.90;7.43;;;;;;;11.74;39.02;100472.78;4907506;28;114975;-68
2021/04/28 07:00:46;;;;;;;14.48;7.43;;;;;;;11.85;38.68;100474.84;4906571;28;114249;-68
2021/04/28 07:03:13;;;;;;;12.90;6.63;;;;;;;11.95;38.62;100476.03;4913205;28;123794;-68
2021/04/28 07:05:40;;;;;;;14.25;7.22;;;;;;;12.06;38.73;100478.09;4926509;28;124155;-67
2021/04/28 07:08:06;;;;;;;13.10;6.97;;;;;;;12.17;38.55;100475.69;4932599;28;114229;-67
2021/04/28 07:10:33;;;;;;;12.13;7.20;;;;;;;12.27;38.03;100482.16;4919908;28;113929;-67
2021/04/28 07:13:00;;;;;;;12.43;7.20;;;;;;;12.35;38.35;100470.25;4907728;28;124406;-68
2021/04/28 07:15:29;;;;;;;9.55;7.00;;;;;;;12.46;38.11;100473.13;4892219;28;123458;-68
2021/04/28 07:18:01;;;;;;;10.45;7.28;;;;;;;12.55;37.89;100477.91;4915974;28;114444;-68
2021/04/28 07:20:28;;;;;;;11.70;7.80;;;;;;;12.64;37.79;100474.69;4914615;28;115033;-67
2021/04/28 07:22:55;;;;;;;11.80;7.07;;;;;;;12.73;37.85;100472.44;4909424;28;123257;-68
2021/04/28 07:25:21;;;;;;;20.95;7.30;;;;;;;12.82;37.49;100461.25;4907770;28;123692;-67
2021/04/28 07:27:48;;;;;;;10.55;7.38;;;;;;;12.92;37.41;100462.41;4916261;28;114777;-68
2021/04/28 07:30:17;;;;;;;10.57;6.80;;;;;;;13.03;37.53;100470.59;4934073;28;114158;-67
2021/04/28 07:32:44;;;;;;;16.20;7.30;;;;;;;13.15;37.39;100465.47;4933007;28;124381;-67
2021/04/28 07:35:18;;;;;;;19.33;8.02;;;;;;;13.26;37.84;100468.31;4924395;28;124189;-67
2021/04/28 07:37:45;;;;;;;11.35;7.35;;;;;;;13.36;37.33;100465.97;4917318;28;114584;-67
2021/04/28 07:40:14;;;;;;;15.82;7.82;;;;;;;13.44;37.38;100455.69;4921064;28;114608;-67
2021/04/28 07:42:41;;;;;;;11.15;7.97;;;;;;;13.53;37.19;100451.59;4924641;28;124454;-67
2021/04/28 07:45:09;;;;;;;11.90;7.43;;;;;;;13.60;37.23;100453.75;4930102;28;123880;-67
2021/04/28 07:47:36;;;;;;;18.05;8.30;;;;;;;13.71;37.17;100450.41;4906226;28;115151;-68
2021/04/28 07:50:18;;;;;;;12.95;7.63;;;;;;;13.86;37.08;100450.34;4908198;28;114882;-68
2021/04/28 07:52:49;;;;;;;19.17;8.23;;;;;;;13.95;36.80;100447.94;4916397;28;123809;-67
2021/04/28 07:55:17;;;;;;;11.45;7.50;;;;;;;14.05;37.18;100450.84;4925448;28;124175;-68
2021/04/28 07:57:44;;;;;;;13.63;7.80;;;;;;;14.17;36.69;100444.72;4920907;28;113334;-67
2021/04/28 08:00:14;;;;;;;14.00;7.63;;;;;;;14.26;36.45;100451.25;4927309;28;113994;-67
2021/04/28 08:02:41;;;;;;;15.27;8.05;;;;;;;14.38;36.36;100450.41;4900162;28;124672;-68
2021/04/28 08:05:09;;;;;;;13.05;7.65;;;;;;;14.52;36.25;100452.16;4909897;28;124076;-67
2021/04/28 08:07:36;;;;;;;11.15;7.47;;;;;;;14.63;36.27;100448.78;4926323;28;114560;-67
2021/04/28 08:10:11;;;;;;;12.82;8.32;;;;;;;14.78;36.44;100442.38;4911192;28;114591;-67
2021/04/28 08:12:40;;;;;;;16.17;8.35;;;;;;;14.97;36.00;100444.66;4926099;28;123911;-67
2021/04/28 08:15:08;;;;;;;13.77;8.23;;;;;;;15.15;36.06;100444.31;4932259;28;123123;-67
2021/04/28 08:17:36;;;;;;;14.85;7.93;;;;;;;15.33;35.99;100443.03;4931266;28;114441;-68
2021/04/28 08:20:03;;;;;;;11.50;7.65;;;;;;;15.50;35.79;100443.59;4912050;28;113684;-68
2021/04/28 08:22:33;;;;;;;12.68;8.10;;;;;;;15.66;35.90;100433.53;4909395;28;122775;-68
2021/04/28 08:25:01;;;;;;;12.63;7.97;;;;;;;15.81;35.32;100436.06;4905331;28;124619;-66
2021/04/28 08:27:28;;;;;;;12.73;7.80;;;;;;;15.93;35.13;100424.47;4918880;28;114330;-66
2021/04/28 08:29:56;;;;;;;12.68;8.07;;;;;;;16.04;34.79;100427.19;4931873;28;114261;-66
2021/04/28 08:32:24;;;;;;;13.10;7.90;;;;;;;16.15;34.82;100424.56;4895089;28;123522;-68
2021/04/28 08:34:51;;;;;;;12.27;8.60;;;;;;;16.27;35.07;100427.28;4926524;28;123558;-66
2021/04/28 08:37:18;;;;;;;16.33;8.20;;;;;;;16.41;35.01;100424.44;4923087;28;114199;-68
2021/04/28 08:39:44;;;;;;;12.75;7.97;;;;;;;16.58;34.93;100430.31;4912063;28;113294;-66
2021/04/28 08:42:11;;;;;;;13.05;8.27;;;;;;;16.70;34.44;100415.97;4931626;28;124314;-67
2021/04/28 08:44:38;;;;;;;15.88;8.05;;;;;;;16.83;34.58;100419.44;4914418;28;124286;-67
2021/04/28 08:47:04;;;;;;;12.43;8.43;;;;;;;16.97;34.36;100421.03;4906558;28;113090;-67
2021/04/28 08:49:32;;;;;;;12.07;8.48;;;;;;;17.10;33.88;100421.78;4934919;28;114147;-67
2021/04/28 08:51:59;;;;;;;14.93;8.15;;;;;;;17.21;33.62;100423.56;4915813;28;123173;-67
2021/04/28 08:54:46;;;;;;;12.07;8.27;;;;;;;17.35;33.57;100424.28;4916748;28;124087;-67
2021/04/28 08:57:13;;;;;;;16.92;8.63;;;;;;;17.43;33.36;100422.72;4923437;28;115551;-67
2021/04/28 08:59:42;;;;;;;12.95;8.23;;;;;;;17.50;33.07;100407.03;4935272;28;115352;-67
2021/04/28 09:02:22;;;;;;;12.05;8.18;;;;;;;17.57;33.14;100405.50;4917040;28;122940;-67
2021/04/28 09:05:04;;;;;;;12.65;8.45;;;;;;;17.67;32.94;100403.81;4914842;28;122997;-67
2021/04/28 09:07:31;;;;;;;12.20;8.60;;;;;;;17.80;33.07;100397.41;4934269;28;114341;-67
2021/04/28 09:10:00;;;;;;;12.63;8.93;;;;;;;17.91;32.65;100394.72;4917950;28;113220;-67
2021/04/28 09:12:27;;;;;;;13.40;8.63;;;;;;;18.04;32.63;100395.41;4935421;28;124192;-67
2021/04/28 09:14:53;;;;;;;13.02;8.35;;;;;;;18.18;32.50;100385.38;4903825;28;123168;-68
2021/04/28 09:17:20;;;;;;;13.65;8.57;;;;;;;18.31;32.29;100386.03;4934607;28;114041;-67
2021/04/28 09:20:19;;;;;;;16.00;8.88;;;;;;;18.45;32.36;100388.38;4934539;28;113975;-67
2021/04/28 09:23:12;;;;;;;12.95;8.48;;;;;;;18.60;32.30;100385.38;4932844;28;125011;-67
2021/04/28 09:26:04;;;;;;;15.80;8.73;;;;;;;18.73;31.90;100375.28;4920093;28;125402;-67
2021/04/28 09:28:52;;;;;;;12.82;8.95;;;;;;;18.85;31.85;100374.25;4922241;28;114581;-67
2021/04/28 09:31:19;;;;;;;14.02;8.73;;;;;;;18.97;31.59;100366.94;4917501;28;114086;-67
2021/04/28 09:33:59;;;;;;;14.77;8.88;;;;;;;19.09;31.30;100364.16;4934121;28;124044;-67
2021/04/28 09:36:33;;;;;;;13.25;9.60;;;;;;;19.20;30.49;100370.28;4917039;28;122712;-68
2021/04/28 09:39:02;;;;;;;13.13;9.23;;;;;;;19.34;30.86;100354.75;4932354;28;114992;-68
2021/04/28 09:41:41;;;;;;;15.45;10.02;;;;;;;19.45;29.47;100360.03;4933076;28;114056;-68
2021/04/28 09:44:16;;;;;;;14.88;9.73;;;;;;;19.60;29.94;100353.25;4915159;28;124052;-68
2021/04/28 09:47:05;;;;;;;15.63;10.55;;;;;;;19.79;29.58;100351.59;4913260;28;123061;-67
2021/04/28 09:49:52;;;;;;;19.95;10.60;;;;;;;19.92;29.00;100346.78;4942948;23;116382;-71
2021/04/28 09:52:41;;;;;;;15.57;9.82;;;;;;;20.01;28.99;100350.47;4921966;28;115121;-71
2021/04/28 09:55:13;;;;;;;12.75;9.80;;;;;;;20.08;27.96;100345.38;4936526;28;124520;-71
2021/04/28 09:57:45;;;;;;;13.80;9.93;;;;;;;20.12;28.37;100342.25;4933993;28;124695;-71
2021/04/28 10:00:23;;;;;;;12.93;10.40;;;;;;;20.17;28.08;100340.00;4915777;28;113298;-71
2021/04/28 10:02:53;;;;;;;14.98;10.35;;;;;;;20.22;27.63;100342.25;4933018;28;114130;-71
2021/04/28 10:05:29;;;;;;;17.45;9.63;;;;;;;20.27;28.12;100339.97;4935390;28;123935;-71
2021/04/28 10:08:16;;;;;;;14.55;9.88;;;;;;;20.34;27.73;100335.72;4915076;28;123764;-71
2021/04/28 10:10:43;;;;;;;17.92;9.98;;;;;;;20.41;27.85;100326.06;4932837;28;114254;-71
2021/04/28 10:13:12;;;;;;;15.38;10.40;;;;;;;20.54;27.71;100330.28;4931473;28;114197;-71
2021/04/28 10:15:39;;;;;;;13.85;10.75;;;;;;;20.66;27.42;100331.81;4922088;28;124471;-71
2021/04/28 10:18:08;;;;;;;15.52;10.10;;;;;;;20.73;27.10;100327.53;4928749;28;124662;-71
2021/04/28 10:20:38;;;;;;;13.38;9.65;;;;;;;20.77;27.26;100326.25;4927834;28;114672;-71
2021/04/28 10:23:07;;;;;;;12.48;9.35;;;;;;;20.83;27.26;100324.81;4925443;28;114532;-71
2021/04/28 10:25:35;;;;;;;16.40;10.48;;;;;;;20.89;27.17;100321.53;4932848;28;124008;-72
2021/04/28 10:28:09;;;;;;;13.85;10.10;;;;;;;20.98;27.31;100317.97;4917316;28;124141;-72
2021/04/28 10:30:40;;;;;;;18.00;10.40;;;;;;;21.06;27.04;100325.28;4917940;28;114574;-72
2021/04/28 10:33:13;;;;;;;12.25;9.85;;;;;;;21.12;27.28;100330.06;4933835;28;114274;-72
2021/04/28 10:35:40;;;;;;;15.10;10.32;;;;;;;21.20;26.95;100314.00;4932765;28;124149;-72
2021/04/28 10:38:07;;;;;;;16.02;10.25;;;;;;;21.27;26.93;100310.72;4915482;28;123172;-71
2021/04/28 10:40:36;;;;;;;13.18;9.88;;;;;;;21.32;27.24;100313.78;4931939;28;115375;-73
2021/04/28 10:43:10;;;;;;;15.18;10.45;;;;;;;21.39;27.39;100312.19;4927803;28;114921;-72
2021/04/28 10:45:38;;;;;;;15.38;10.38;;;;;;;21.48;27.23;100314.00;4924422;28;124455;-72
2021/04/28 10:48:39;;;;;;;19.63;10.45;;;;;;;21.65;27.38;100308.78;4906042;28;122979;-72
2021/04/28 10:51:05;;;;;;;16.50;10.40;;;;;;;21.81;27.23;100303.50;4910510;28;114222;-71
2021/04/28 10:53:32;;;;;;;15.10;11.48;;;;;;;21.92;26.23;100305.94;4935071;28;114316;-73
2021/04/28 10:56:08;;;;;;;13.10;10.00;;;;;;;21.97;26.16;100300.94;4930554;28;124439;-73
2021/04/28 10:58:40;;;;;;;16.50;10.65;;;;;;;22.05;26.43;100288.53;4913039;28;123517;-72
2021/04/28 11:01:10;;;;;;;18.05;11.20;;;;;;;22.17;26.45;100292.69;4932674;28;114664;-71
2021/04/28 11:03:40;;;;;;;19.35;11.43;;;;;;;22.30;26.11;100286.88;4922878;28;114037;-71
2021/04/28 11:06:20;;;;;;;15.88;11.02;;;;;;;22.37;26.29;100292.50;4912835;28;123312;-71
2021/04/28 11:09:07;;;;;;;16.67;11.73;;;;;;;22.41;26.02;100278.50;4913943;28;122675;-71
2021/04/28 11:11:42;;;;;;;15.93;11.13;;;;;;;22.43;25.77;100281.06;4931540;28;114471;-71
2021/04/28 11:14:09;;;;;;;13.93;11.15;;;;;;;22.47;26.08;100282.41;4925561;28;114271;-71
2021/04/28 11:16:43;;;;;;;19.55;12.02;;;;;;;22.58;25.95;100274.03;4902292;28;123217;-71
2021/04/28 11:19:16;;;;;;;14.93;11.20;;;;;;;22.68;25.39;100274.78;4920619;28;124672;-71
2021/04/28 11:21:44;;;;;;;18.85;11.55;;;;;;;22.74;25.56;100268.72;4921739;28;114124;-71
2021/04/28 11:24:15;;;;;;;15.30;11.18;;;;;;;22.85;26.27;100269.44;4927365;28;113901;-71
2021/04/28 11:26:51;;;;;;;14.98;11.55;;;;;;;23.02;25.43;100260.41;4924628;28;124787;-71
2021/04/28 11:29:19;;;;;;;16.48;11.23;;;;;;;23.11;25.16;100267.53;4917437;28;125100;-72